sensor_id;sensor_type;location;lat;lon;timestamp;P1;durP1;ratioP1;P2;durP2;ratioP2
73100;SDS011;61288;53.446;-2.266;2023-08-30T00:00:46;4.88;;;1.23;;
73100;SDS011;61288;53.446;-2.266;2023-08-30T00:03:13;8.35;;;1.25;;
73100;SDS011;61288;53.446;-2.266;2023-08-30T00:05:39;3.67;;;0.93;;
73100;SDS011;61288;53.446;-2.266;2023-08-30T00:08:06;3.10;;;1.13;;
73100;SDS011;61288;53.446;-2.266;2023-08-30T00:10:32;2.88;;;0.93;;
73100;SDS011;61288;53.446;-2.266;2023-08-30T00:12:57;5.35;;;1.08;;
73100;SDS011;61288;53.446;-2.266;2023-08-30T00:15:23;3.83;;;1.00;;
73100;SDS011;61288;53.446;-2.266;2023-08-30T00:17:49;5.65;;;1.42;;
73100;SDS011;61288;53.446;-2.266;2023-08-30T00:20:17;5.40;;;1.30;;
73100;SDS011;61288;53.446;-2.266;2023-08-30T00:22:43;5.47;;;1.45;;
73100;SDS011;61288;53.446;-2.266;2023-08-30T00:25:08;4.45;;;1.30;;
73100;SDS011;61288;53.446;-2.266;2023-08-30T00:27:34;5.20;;;1.27;;
73100;SDS011;61288;53.446;-2.266;2023-08-30T00:29:59;6.60;;;1.42;;
73100;SDS011;61288;53.446;-2.266;2023-08-30T00:32:25;3.92;;;1.05;;
73100;SDS011;61288;53.446;-2.266;2023-08-30T00:34:50;4.93;;;1.42;;
73100;SDS011;61288;53.446;-2.266;2023-08-30T00:37:16;6.38;;;1.40;;
73100;SDS011;61288;53.446;-2.266;2023-08-30T00:39:42;4.70;;;1.27;;
73100;SDS011;61288;53.446;-2.266;2023-08-30T00:42:08;5.40;;;1.20;;
73100;SDS011;61288;53.446;-2.266;2023-08-30T00:44:34;5.78;;;1.10;;
73100;SDS011;61288;53.446;-2.266;2023-08-30T00:47:00;6.05;;;1.48;;
73100;SDS011;61288;53.446;-2.266;2023-08-30T00:49:28;4.60;;;1.02;;
73100;SDS011;61288;53.446;-2.266;2023-08-30T00:51:56;6.95;;;1.40;;
73100;SDS011;61288;53.446;-2.266;2023-08-30T00:54:23;4.70;;;1.20;;
73100;SDS011;61288;53.446;-2.266;2023-08-30T00:56:49;4.63;;;1.13;;
73100;SDS011;61288;53.446;-2.266;2023-08-30T00:59:15;2.60;;;1.15;;
73100;SDS011;61288;53.446;-2.266;2023-08-30T01:01:41;6.00;;;1.42;;
73100;SDS011;61288;53.446;-2.266;2023-08-30T01:04:07;4.45;;;1.63;;
73100;SDS011;61288;53.446;-2.266;2023-08-30T01:06:32;4.72;;;1.35;;
73100;SDS011;61288;53.446;-2.266;2023-08-30T01:09:00;9.10;;;1.77;;
73100;SDS011;61288;53.446;-2.266;2023-08-30T01:11:30;4.90;;;1.83;;
73100;SDS011;61288;53.446;-2.266;2023-08-30T01:14:15;4.55;;;1.33;;
73100;SDS011;61288;53.446;-2.266;2023-08-30T01:16:45;6.10;;;1.77;;
73100;SDS011;61288;53.446;-2.266;2023-08-30T01:27:40;5.50;;;1.55;;
73100;SDS011;61288;53.446;-2.266;2023-08-30T01:30:07;4.57;;;1.27;;
73100;SDS011;61288;53.446;-2.266;2023-08-30T01:32:36;10.45;;;2.10;;
73100;SDS011;61288;53.446;-2.266;2023-08-30T01:35:04;9.25;;;1.75;;
73100;SDS011;61288;53.446;-2.266;2023-08-30T01:37:31;6.47;;;1.65;;
73100;SDS011;61288;53.446;-2.266;2023-08-30T01:39:58;6.30;;;1.58;;
73100;SDS011;61288;53.446;-2.266;2023-08-30T01:42:26;5.10;;;1.52;;
73100;SDS011;61288;53.446;-2.266;2023-08-30T01:44:52;5.63;;;1.33;;
73100;SDS011;61288;53.446;-2.266;2023-08-30T01:47:25;7.63;;;1.40;;
73100;SDS011;61288;53.446;-2.266;2023-08-30T01:52:19;5.15;;;1.70;;
73100;SDS011;61288;53.446;-2.266;2023-08-30T01:54:46;5.93;;;1.55;;
73100;SDS011;61288;53.446;-2.266;2023-08-30T01:57:12;6.93;;;1.38;;
73100;SDS011;61288;53.446;-2.266;2023-08-30T01:59:38;5.80;;;1.55;;
73100;SDS011;61288;53.446;-2.266;2023-08-30T02:02:03;3.90;;;1.38;;
73100;SDS011;61288;53.446;-2.266;2023-08-30T02:04:29;6.70;;;1.52;;
73100;SDS011;61288;53.446;-2.266;2023-08-30T02:09:52;6.95;;;1.60;;
73100;SDS011;61288;53.446;-2.266;2023-08-30T02:12:24;6.32;;;1.60;;
73100;SDS011;61288;53.446;-2.266;2023-08-30T02:14:53;5.53;;;1.30;;
73100;SDS011;61288;53.446;-2.266;2023-08-30T02:17:23;10.35;;;1.98;;
73100;SDS011;61288;53.446;-2.266;2023-08-30T02:19:49;7.63;;;1.75;;
73100;SDS011;61288;53.446;-2.266;2023-08-30T02:22:18;7.38;;;1.80;;
73100;SDS011;61288;53.446;-2.266;2023-08-30T02:24:44;8.05;;;1.67;;
73100;SDS011;61288;53.446;-2.266;2023-08-30T02:27:09;7.10;;;1.88;;
73100;SDS011;61288;53.446;-2.266;2023-08-30T02:29:35;5.00;;;1.48;;
73100;SDS011;61288;53.446;-2.266;2023-08-30T02:32:00;6.00;;;1.40;;
73100;SDS011;61288;53.446;-2.266;2023-08-30T02:34:26;7.85;;;1.60;;
73100;SDS011;61288;53.446;-2.266;2023-08-30T02:36:51;4.60;;;1.38;;
73100;SDS011;61288;53.446;-2.266;2023-08-30T02:39:17;5.07;;;1.48;;
73100;SDS011;61288;53.446;-2.266;2023-08-30T02:41:43;8.32;;;1.80;;
73100;SDS011;61288;53.446;-2.266;2023-08-30T02:44:08;4.50;;;1.33;;
73100;SDS011;61288;53.446;-2.266;2023-08-30T02:46:36;6.80;;;1.55;;
73100;SDS011;61288;53.446;-2.266;2023-08-30T02:49:03;6.45;;;1.70;;
73100;SDS011;61288;53.446;-2.266;2023-08-30T02:51:28;5.72;;;1.70;;
73100;SDS011;61288;53.446;-2.266;2023-08-30T02:53:54;6.43;;;1.73;;
73100;SDS011;61288;53.446;-2.266;2023-08-30T02:56:19;5.55;;;1.60;;
73100;SDS011;61288;53.446;-2.266;2023-08-30T02:58:45;6.72;;;1.50;;
73100;SDS011;61288;53.446;-2.266;2023-08-30T03:01:10;6.20;;;1.48;;
73100;SDS011;61288;53.446;-2.266;2023-08-30T03:03:36;9.02;;;2.00;;
73100;SDS011;61288;53.446;-2.266;2023-08-30T03:06:02;5.45;;;1.75;;
73100;SDS011;61288;53.446;-2.266;2023-08-30T03:08:32;7.50;;;2.05;;
73100;SDS011;61288;53.446;-2.266;2023-08-30T03:11:07;5.72;;;1.50;;
73100;SDS011;61288;53.446;-2.266;2023-08-30T03:13:36;5.78;;;1.60;;
73100;SDS011;61288;53.446;-2.266;2023-08-30T03:16:09;5.90;;;1.63;;
73100;SDS011;61288;53.446;-2.266;2023-08-30T03:18:39;3.90;;;1.48;;
73100;SDS011;61288;53.446;-2.266;2023-08-30T03:21:05;6.90;;;1.55;;
73100;SDS011;61288;53.446;-2.266;2023-08-30T03:23:32;5.53;;;1.60;;
73100;SDS011;61288;53.446;-2.266;2023-08-30T03:25:59;7.18;;;1.48;;
73100;SDS011;61288;53.446;-2.266;2023-08-30T03:28:28;8.45;;;1.48;;
73100;SDS011;61288;53.446;-2.266;2023-08-30T03:30:53;7.18;;;1.90;;
73100;SDS011;61288;53.446;-2.266;2023-08-30T03:33:19;4.85;;;1.23;;
73100;SDS011;61288;53.446;-2.266;2023-08-30T03:35:44;7.88;;;2.58;;
73100;SDS011;61288;53.446;-2.266;2023-08-30T03:38:10;4.90;;;1.48;;
73100;SDS011;61288;53.446;-2.266;2023-08-30T03:40:35;5.57;;;1.40;;
73100;SDS011;61288;53.446;-2.266;2023-08-30T03:43:01;6.65;;;1.50;;
73100;SDS011;61288;53.446;-2.266;2023-08-30T03:45:26;7.85;;;2.00;;
73100;SDS011;61288;53.446;-2.266;2023-08-30T03:47:52;4.60;;;1.55;;
73100;SDS011;61288;53.446;-2.266;2023-08-30T03:50:17;5.57;;;1.75;;
73100;SDS011;61288;53.446;-2.266;2023-08-30T03:52:43;6.75;;;1.67;;
73100;SDS011;61288;53.446;-2.266;2023-08-30T03:55:08;5.70;;;1.80;;
73100;SDS011;61288;53.446;-2.266;2023-08-30T03:57:34;6.03;;;1.50;;
73100;SDS011;61288;53.446;-2.266;2023-08-30T03:59:59;9.13;;;2.20;;
73100;SDS011;61288;53.446;-2.266;2023-08-30T04:02:25;8.48;;;1.83;;
73100;SDS011;61288;53.446;-2.266;2023-08-30T04:04:50;10.40;;;1.70;;
73100;SDS011;61288;53.446;-2.266;2023-08-30T04:07:16;9.00;;;1.85;;
73100;SDS011;61288;53.446;-2.266;2023-08-30T04:09:41;6.10;;;1.80;;
73100;SDS011;61288;53.446;-2.266;2023-08-30T04:12:07;5.75;;;1.70;;
73100;SDS011;61288;53.446;-2.266;2023-08-30T04:14:33;7.03;;;1.75;;
73100;SDS011;61288;53.446;-2.266;2023-08-30T04:16:59;4.07;;;1.60;;
73100;SDS011;61288;53.446;-2.266;2023-08-30T04:19:24;8.32;;;1.70;;
73100;SDS011;61288;53.446;-2.266;2023-08-30T04:21:50;6.72;;;1.60;;
73100;SDS011;61288;53.446;-2.266;2023-08-30T04:24:16;6.28;;;2.10;;
73100;SDS011;61288;53.446;-2.266;2023-08-30T04:26:41;6.90;;;1.90;;
73100;SDS011;61288;53.446;-2.266;2023-08-30T04:29:08;4.97;;;1.60;;
73100;SDS011;61288;53.446;-2.266;2023-08-30T04:31:34;4.05;;;1.80;;
73100;SDS011;61288;53.446;-2.266;2023-08-30T04:34:00;9.30;;;1.90;;
73100;SDS011;61288;53.446;-2.266;2023-08-30T04:36:26;6.63;;;1.60;;
73100;SDS011;61288;53.446;-2.266;2023-08-30T04:38:51;6.93;;;1.90;;
73100;SDS011;61288;53.446;-2.266;2023-08-30T04:41:17;5.90;;;1.60;;
73100;SDS011;61288;53.446;-2.266;2023-08-30T04:43:42;5.45;;;1.60;;
73100;SDS011;61288;53.446;-2.266;2023-08-30T04:46:08;8.73;;;1.90;;
73100;SDS011;61288;53.446;-2.266;2023-08-30T04:48:34;4.78;;;1.58;;
73100;SDS011;61288;53.446;-2.266;2023-08-30T04:51:02;5.55;;;1.70;;
73100;SDS011;61288;53.446;-2.266;2023-08-30T04:53:29;3.55;;;1.40;;
73100;SDS011;61288;53.446;-2.266;2023-08-30T04:55:55;6.45;;;1.40;;
73100;SDS011;61288;53.446;-2.266;2023-08-30T04:58:22;5.30;;;1.70;;
73100;SDS011;61288;53.446;-2.266;2023-08-30T05:00:48;5.38;;;1.35;;
73100;SDS011;61288;53.446;-2.266;2023-08-30T05:03:14;3.40;;;1.15;;
73100;SDS011;61288;53.446;-2.266;2023-08-30T05:05:44;7.22;;;1.60;;
73100;SDS011;61288;53.446;-2.266;2023-08-30T05:08:10;3.95;;;1.30;;
73100;SDS011;61288;53.446;-2.266;2023-08-30T05:10:36;6.95;;;1.60;;
73100;SDS011;61288;53.446;-2.266;2023-08-30T05:13:02;6.13;;;1.60;;
73100;SDS011;61288;53.446;-2.266;2023-08-30T05:15:28;4.32;;;1.55;;
73100;SDS011;61288;53.446;-2.266;2023-08-30T05:17:54;7.80;;;1.70;;
73100;SDS011;61288;53.446;-2.266;2023-08-30T05:20:19;5.72;;;1.55;;
73100;SDS011;61288;53.446;-2.266;2023-08-30T05:22:45;4.97;;;1.67;;
73100;SDS011;61288;53.446;-2.266;2023-08-30T05:25:11;3.78;;;1.60;;
73100;SDS011;61288;53.446;-2.266;2023-08-30T05:27:37;7.88;;;1.52;;
73100;SDS011;61288;53.446;-2.266;2023-08-30T05:30:03;4.13;;;1.40;;
73100;SDS011;61288;53.446;-2.266;2023-08-30T05:32:28;5.38;;;1.42;;
73100;SDS011;61288;53.446;-2.266;2023-08-30T05:34:54;4.45;;;1.35;;
73100;SDS011;61288;53.446;-2.266;2023-08-30T05:37:21;5.53;;;1.70;;
73100;SDS011;61288;53.446;-2.266;2023-08-30T05:39:47;5.40;;;1.50;;
73100;SDS011;61288;53.446;-2.266;2023-08-30T05:42:12;7.75;;;1.50;;
73100;SDS011;61288;53.446;-2.266;2023-08-30T05:44:38;6.45;;;1.45;;
73100;SDS011;61288;53.446;-2.266;2023-08-30T05:47:04;7.22;;;1.55;;
73100;SDS011;61288;53.446;-2.266;2023-08-30T05:49:29;7.30;;;1.48;;
73100;SDS011;61288;53.446;-2.266;2023-08-30T05:51:55;4.72;;;1.58;;
73100;SDS011;61288;53.446;-2.266;2023-08-30T05:54:21;7.85;;;1.63;;
73100;SDS011;61288;53.446;-2.266;2023-08-30T05:56:46;9.20;;;1.67;;
73100;SDS011;61288;53.446;-2.266;2023-08-30T05:59:12;5.57;;;1.50;;
73100;SDS011;61288;53.446;-2.266;2023-08-30T06:01:37;6.60;;;1.70;;
73100;SDS011;61288;53.446;-2.266;2023-08-30T06:04:04;5.30;;;1.75;;
73100;SDS011;61288;53.446;-2.266;2023-08-30T06:06:30;5.22;;;1.55;;
73100;SDS011;61288;53.446;-2.266;2023-08-30T06:08:57;3.55;;;1.40;;
73100;SDS011;61288;53.446;-2.266;2023-08-30T06:11:23;8.00;;;1.85;;
73100;SDS011;61288;53.446;-2.266;2023-08-30T06:13:48;4.53;;;1.45;;
73100;SDS011;61288;53.446;-2.266;2023-08-30T06:16:14;8.00;;;1.90;;
73100;SDS011;61288;53.446;-2.266;2023-08-30T06:18:39;9.25;;;1.75;;
73100;SDS011;61288;53.446;-2.266;2023-08-30T06:21:06;5.35;;;1.52;;
73100;SDS011;61288;53.446;-2.266;2023-08-30T06:23:32;6.55;;;2.03;;
73100;SDS011;61288;53.446;-2.266;2023-08-30T06:25:58;8.88;;;1.90;;
73100;SDS011;61288;53.446;-2.266;2023-08-30T06:28:25;5.97;;;1.73;;
73100;SDS011;61288;53.446;-2.266;2023-08-30T06:30:51;5.97;;;1.60;;
73100;SDS011;61288;53.446;-2.266;2023-08-30T06:33:16;10.95;;;1.90;;
73100;SDS011;61288;53.446;-2.266;2023-08-30T06:35:42;7.90;;;2.20;;
73100;SDS011;61288;53.446;-2.266;2023-08-30T06:38:08;5.18;;;1.60;;
73100;SDS011;61288;53.446;-2.266;2023-08-30T06:40:33;5.93;;;1.80;;
73100;SDS011;61288;53.446;-2.266;2023-08-30T06:42:59;5.65;;;1.80;;
73100;SDS011;61288;53.446;-2.266;2023-08-30T06:45:24;8.50;;;2.00;;
73100;SDS011;61288;53.446;-2.266;2023-08-30T06:47:50;7.22;;;2.00;;
73100;SDS011;61288;53.446;-2.266;2023-08-30T06:50:17;9.30;;;2.00;;
73100;SDS011;61288;53.446;-2.266;2023-08-30T06:52:43;9.88;;;2.63;;
73100;SDS011;61288;53.446;-2.266;2023-08-30T06:55:09;9.77;;;1.85;;
73100;SDS011;61288;53.446;-2.266;2023-08-30T06:57:34;9.55;;;1.98;;
73100;SDS011;61288;53.446;-2.266;2023-08-30T07:00:00;11.90;;;2.30;;
73100;SDS011;61288;53.446;-2.266;2023-08-30T07:02:32;11.38;;;2.55;;
73100;SDS011;61288;53.446;-2.266;2023-08-30T07:05:00;8.57;;;2.00;;
73100;SDS011;61288;53.446;-2.266;2023-08-30T07:07:25;8.88;;;1.92;;
73100;SDS011;61288;53.446;-2.266;2023-08-30T07:09:51;9.50;;;2.25;;
73100;SDS011;61288;53.446;-2.266;2023-08-30T07:12:16;11.35;;;2.30;;
73100;SDS011;61288;53.446;-2.266;2023-08-30T07:14:41;9.07;;;2.47;;
73100;SDS011;61288;53.446;-2.266;2023-08-30T07:17:07;7.30;;;2.00;;
73100;SDS011;61288;53.446;-2.266;2023-08-30T07:19:32;9.02;;;2.28;;
73100;SDS011;61288;53.446;-2.266;2023-08-30T07:21:58;11.90;;;2.67;;
73100;SDS011;61288;53.446;-2.266;2023-08-30T07:24:26;10.82;;;2.40;;
73100;SDS011;61288;53.446;-2.266;2023-08-30T07:26:51;11.75;;;2.78;;
73100;SDS011;61288;53.446;-2.266;2023-08-30T07:29:17;9.82;;;2.55;;
73100;SDS011;61288;53.446;-2.266;2023-08-30T07:31:42;10.98;;;3.08;;
73100;SDS011;61288;53.446;-2.266;2023-08-30T07:34:08;10.43;;;2.70;;
73100;SDS011;61288;53.446;-2.266;2023-08-30T07:36:33;11.38;;;2.75;;
73100;SDS011;61288;53.446;-2.266;2023-08-30T07:38:59;15.38;;;4.45;;
73100;SDS011;61288;53.446;-2.266;2023-08-30T07:41:24;11.25;;;2.67;;
73100;SDS011;61288;53.446;-2.266;2023-08-30T07:43:50;9.48;;;2.53;;
73100;SDS011;61288;53.446;-2.266;2023-08-30T07:46:15;10.93;;;3.17;;
73100;SDS011;61288;53.446;-2.266;2023-08-30T07:48:41;8.15;;;2.35;;
73100;SDS011;61288;53.446;-2.266;2023-08-30T07:51:06;10.25;;;2.35;;
73100;SDS011;61288;53.446;-2.266;2023-08-30T07:53:32;13.85;;;2.90;;
73100;SDS011;61288;53.446;-2.266;2023-08-30T07:55:57;9.48;;;2.80;;
73100;SDS011;61288;53.446;-2.266;2023-08-30T07:58:23;11.82;;;2.63;;
73100;SDS011;61288;53.446;-2.266;2023-08-30T08:00:52;16.60;;;3.55;;
73100;SDS011;61288;53.446;-2.266;2023-08-30T08:03:22;9.52;;;2.65;;
73100;SDS011;61288;53.446;-2.266;2023-08-30T08:05:48;10.18;;;2.58;;
73100;SDS011;61288;53.446;-2.266;2023-08-30T08:08:14;14.85;;;2.97;;
73100;SDS011;61288;53.446;-2.266;2023-08-30T08:10:39;11.57;;;2.30;;
73100;SDS011;61288;53.446;-2.266;2023-08-30T08:13:06;13.10;;;2.53;;
73100;SDS011;61288;53.446;-2.266;2023-08-30T08:15:32;10.38;;;2.67;;
73100;SDS011;61288;53.446;-2.266;2023-08-30T08:17:59;9.75;;;2.80;;
73100;SDS011;61288;53.446;-2.266;2023-08-30T08:20:25;9.80;;;2.35;;
73100;SDS011;61288;53.446;-2.266;2023-08-30T08:22:51;11.38;;;2.75;;
73100;SDS011;61288;53.446;-2.266;2023-08-30T08:25:17;9.10;;;2.22;;
73100;SDS011;61288;53.446;-2.266;2023-08-30T08:27:42;11.30;;;2.25;;
73100;SDS011;61288;53.446;-2.266;2023-08-30T08:30:08;12.55;;;2.47;;
73100;SDS011;61288;53.446;-2.266;2023-08-30T08:32:35;12.18;;;2.45;;
73100;SDS011;61288;53.446;-2.266;2023-08-30T08:35:01;8.48;;;2.13;;
73100;SDS011;61288;53.446;-2.266;2023-08-30T08:37:27;8.27;;;2.22;;
73100;SDS011;61288;53.446;-2.266;2023-08-30T08:39:53;8.35;;;2.03;;
73100;SDS011;61288;53.446;-2.266;2023-08-30T08:42:19;7.30;;;2.20;;
73100;SDS011;61288;53.446;-2.266;2023-08-30T08:44:51;8.43;;;2.15;;
73100;SDS011;61288;53.446;-2.266;2023-08-30T08:47:19;10.45;;;1.80;;
73100;SDS011;61288;53.446;-2.266;2023-08-30T08:49:45;9.88;;;1.80;;
73100;SDS011;61288;53.446;-2.266;2023-08-30T08:52:13;9.30;;;2.13;;
73100;SDS011;61288;53.446;-2.266;2023-08-30T08:54:40;9.88;;;1.80;;
73100;SDS011;61288;53.446;-2.266;2023-08-30T08:57:07;6.32;;;1.45;;
73100;SDS011;61288;53.446;-2.266;2023-08-30T08:59:33;5.53;;;1.30;;
73100;SDS011;61288;53.446;-2.266;2023-08-30T09:02:00;5.93;;;1.52;;
73100;SDS011;61288;53.446;-2.266;2023-08-30T09:04:26;7.78;;;1.38;;
73100;SDS011;61288;53.446;-2.266;2023-08-30T09:06:55;7.85;;;1.80;;
73100;SDS011;61288;53.446;-2.266;2023-08-30T09:09:20;6.47;;;1.33;;
73100;SDS011;61288;53.446;-2.266;2023-08-30T09:11:47;5.53;;;1.45;;
73100;SDS011;61288;53.446;-2.266;2023-08-30T09:14:12;5.60;;;1.40;;
73100;SDS011;61288;53.446;-2.266;2023-08-30T09:16:38;3.33;;;1.23;;
73100;SDS011;61288;53.446;-2.266;2023-08-30T09:19:03;8.98;;;1.60;;
73100;SDS011;61288;53.446;-2.266;2023-08-30T09:21:29;6.82;;;1.70;;
73100;SDS011;61288;53.446;-2.266;2023-08-30T09:24:03;6.43;;;1.60;;
73100;SDS011;61288;53.446;-2.266;2023-08-30T09:26:31;7.25;;;1.50;;
73100;SDS011;61288;53.446;-2.266;2023-08-30T09:29:03;5.72;;;1.42;;
73100;SDS011;61288;53.446;-2.266;2023-08-30T09:34:05;8.48;;;1.50;;
73100;SDS011;61288;53.446;-2.266;2023-08-30T09:39:07;4.22;;;1.20;;
73100;SDS011;61288;53.446;-2.266;2023-08-30T09:41:34;5.07;;;1.60;;
73100;SDS011;61288;53.446;-2.266;2023-08-30T09:44:05;7.65;;;1.30;;
73100;SDS011;61288;53.446;-2.266;2023-08-30T09:46:32;5.25;;;1.50;;
73100;SDS011;61288;53.446;-2.266;2023-08-30T09:49:04;7.15;;;1.25;;
73100;SDS011;61288;53.446;-2.266;2023-08-30T09:51:30;5.93;;;1.33;;
73100;SDS011;61288;53.446;-2.266;2023-08-30T09:53:58;5.43;;;1.17;;
73100;SDS011;61288;53.446;-2.266;2023-08-30T09:56:29;5.03;;;1.27;;
73100;SDS011;61288;53.446;-2.266;2023-08-30T09:58:55;5.18;;;1.17;;
73100;SDS011;61288;53.446;-2.266;2023-08-30T10:01:25;3.85;;;0.93;;
73100;SDS011;61288;53.446;-2.266;2023-08-30T10:03:52;3.95;;;1.30;;
73100;SDS011;61288;53.446;-2.266;2023-08-30T10:06:20;3.42;;;1.10;;
73100;SDS011;61288;53.446;-2.266;2023-08-30T10:08:47;4.97;;;1.20;;
73100;SDS011;61288;53.446;-2.266;2023-08-30T10:11:14;6.82;;;1.30;;
73100;SDS011;61288;53.446;-2.266;2023-08-30T10:13:43;7.25;;;1.55;;
73100;SDS011;61288;53.446;-2.266;2023-08-30T10:16:09;6.60;;;1.20;;
73100;SDS011;61288;53.446;-2.266;2023-08-30T10:18:41;5.43;;;1.42;;
73100;SDS011;61288;53.446;-2.266;2023-08-30T10:21:09;5.22;;;1.27;;
73100;SDS011;61288;53.446;-2.266;2023-08-30T10:23:37;7.40;;;1.60;;
73100;SDS011;61288;53.446;-2.266;2023-08-30T10:26:04;6.70;;;1.33;;
73100;SDS011;61288;53.446;-2.266;2023-08-30T10:28:32;6.25;;;1.30;;
73100;SDS011;61288;53.446;-2.266;2023-08-30T10:30:59;2.22;;;0.95;;
73100;SDS011;61288;53.446;-2.266;2023-08-30T10:33:25;5.25;;;1.20;;
73100;SDS011;61288;53.446;-2.266;2023-08-30T10:35:51;7.43;;;1.30;;
73100;SDS011;61288;53.446;-2.266;2023-08-30T10:38:26;4.45;;;1.13;;
73100;SDS011;61288;53.446;-2.266;2023-08-30T10:40:53;4.35;;;1.05;;
73100;SDS011;61288;53.446;-2.266;2023-08-30T10:43:31;2.72;;;1.02;;
73100;SDS011;61288;53.446;-2.266;2023-08-30T10:46:03;6.22;;;1.23;;
73100;SDS011;61288;53.446;-2.266;2023-08-30T10:48:38;4.80;;;0.93;;
73100;SDS011;61288;53.446;-2.266;2023-08-30T10:51:06;6.32;;;1.05;;
73100;SDS011;61288;53.446;-2.266;2023-08-30T10:53:54;3.22;;;0.88;;
73100;SDS011;61288;53.446;-2.266;2023-08-30T10:56:27;2.55;;;0.80;;
73100;SDS011;61288;53.446;-2.266;2023-08-30T10:58:54;3.83;;;1.10;;
73100;SDS011;61288;53.446;-2.266;2023-08-30T11:01:19;5.43;;;1.20;;
73100;SDS011;61288;53.446;-2.266;2023-08-30T11:03:45;5.40;;;1.10;;
73100;SDS011;61288;53.446;-2.266;2023-08-30T11:06:14;5.25;;;1.25;;
73100;SDS011;61288;53.446;-2.266;2023-08-30T11:08:40;3.17;;;1.00;;
73100;SDS011;61288;53.446;-2.266;2023-08-30T11:11:07;6.88;;;1.00;;
73100;SDS011;61288;53.446;-2.266;2023-08-30T11:13:35;6.03;;;1.05;;
73100;SDS011;61288;53.446;-2.266;2023-08-30T11:16:03;6.70;;;0.90;;
73100;SDS011;61288;53.446;-2.266;2023-08-30T11:18:38;3.65;;;1.05;;
73100;SDS011;61288;53.446;-2.266;2023-08-30T11:21:07;4.70;;;1.00;;
73100;SDS011;61288;53.446;-2.266;2023-08-30T11:23:34;5.65;;;1.30;;
73100;SDS011;61288;53.446;-2.266;2023-08-30T11:25:59;8.88;;;1.95;;
73100;SDS011;61288;53.446;-2.266;2023-08-30T11:28:28;9.50;;;2.13;;
73100;SDS011;61288;53.446;-2.266;2023-08-30T11:30:54;5.93;;;1.20;;
73100;SDS011;61288;53.446;-2.266;2023-08-30T11:33:21;3.97;;;1.13;;
73100;SDS011;61288;53.446;-2.266;2023-08-30T11:35:51;6.00;;;1.10;;
73100;SDS011;61288;53.446;-2.266;2023-08-30T11:38:17;4.97;;;1.05;;
73100;SDS011;61288;53.446;-2.266;2023-08-30T11:40:44;4.55;;;1.10;;
73100;SDS011;61288;53.446;-2.266;2023-08-30T11:43:10;5.13;;;1.23;;
73100;SDS011;61288;53.446;-2.266;2023-08-30T11:45:36;7.53;;;1.25;;
73100;SDS011;61288;53.446;-2.266;2023-08-30T11:48:02;5.38;;;1.17;;
73100;SDS011;61288;53.446;-2.266;2023-08-30T11:50:28;4.88;;;1.10;;
73100;SDS011;61288;53.446;-2.266;2023-08-30T11:52:54;4.28;;;1.13;;
73100;SDS011;61288;53.446;-2.266;2023-08-30T11:55:21;3.83;;;1.02;;
73100;SDS011;61288;53.446;-2.266;2023-08-30T11:57:50;3.72;;;1.00;;
73100;SDS011;61288;53.446;-2.266;2023-08-30T12:00:17;3.45;;;1.10;;
73100;SDS011;61288;53.446;-2.266;2023-08-30T12:02:45;3.45;;;0.90;;
73100;SDS011;61288;53.446;-2.266;2023-08-30T12:05:15;4.35;;;1.20;;
73100;SDS011;61288;53.446;-2.266;2023-08-30T12:07:41;3.30;;;0.93;;
73100;SDS011;61288;53.446;-2.266;2023-08-30T12:10:07;4.70;;;0.95;;
73100;SDS011;61288;53.446;-2.266;2023-08-30T12:12:36;4.05;;;1.42;;
73100;SDS011;61288;53.446;-2.266;2023-08-30T12:15:09;3.65;;;1.00;;
73100;SDS011;61288;53.446;-2.266;2023-08-30T12:17:38;3.70;;;0.80;;
73100;SDS011;61288;53.446;-2.266;2023-08-30T12:20:03;6.47;;;1.35;;
73100;SDS011;61288;53.446;-2.266;2023-08-30T12:22:39;4.18;;;0.90;;
73100;SDS011;61288;53.446;-2.266;2023-08-30T12:25:18;4.60;;;1.13;;
73100;SDS011;61288;53.446;-2.266;2023-08-30T12:27:46;3.00;;;0.90;;
73100;SDS011;61288;53.446;-2.266;2023-08-30T12:30:13;3.70;;;1.00;;
73100;SDS011;61288;53.446;-2.266;2023-08-30T12:32:39;4.28;;;1.08;;
73100;SDS011;61288;53.446;-2.266;2023-08-30T12:35:05;4.78;;;1.20;;
73100;SDS011;61288;53.446;-2.266;2023-08-30T12:37:31;5.68;;;1.20;;
73100;SDS011;61288;53.446;-2.266;2023-08-30T12:39:56;3.55;;;1.10;;
73100;SDS011;61288;53.446;-2.266;2023-08-30T12:42:22;4.75;;;1.02;;
73100;SDS011;61288;53.446;-2.266;2023-08-30T12:44:47;5.28;;;1.38;;
73100;SDS011;61288;53.446;-2.266;2023-08-30T12:47:13;6.32;;;1.20;;
73100;SDS011;61288;53.446;-2.266;2023-08-30T12:49:39;3.83;;;0.90;;
73100;SDS011;61288;53.446;-2.266;2023-08-30T12:52:05;3.58;;;1.02;;
73100;SDS011;61288;53.446;-2.266;2023-08-30T12:54:32;5.38;;;1.33;;
73100;SDS011;61288;53.446;-2.266;2023-08-30T12:56:57;5.72;;;1.13;;
73100;SDS011;61288;53.446;-2.266;2023-08-30T12:59:23;3.97;;;1.25;;
73100;SDS011;61288;53.446;-2.266;2023-08-30T13:01:49;4.55;;;1.15;;
73100;SDS011;61288;53.446;-2.266;2023-08-30T13:04:15;6.00;;;1.40;;
73100;SDS011;61288;53.446;-2.266;2023-08-30T13:06:40;3.90;;;1.17;;
73100;SDS011;61288;53.446;-2.266;2023-08-30T13:09:05;4.15;;;1.10;;
73100;SDS011;61288;53.446;-2.266;2023-08-30T13:11:31;2.58;;;1.02;;
73100;SDS011;61288;53.446;-2.266;2023-08-30T13:13:57;4.28;;;0.90;;
73100;SDS011;61288;53.446;-2.266;2023-08-30T13:16:23;3.97;;;0.85;;
73100;SDS011;61288;53.446;-2.266;2023-08-30T13:18:49;5.43;;;1.10;;
73100;SDS011;61288;53.446;-2.266;2023-08-30T13:21:15;5.43;;;0.82;;
73100;SDS011;61288;53.446;-2.266;2023-08-30T13:23:41;3.08;;;1.15;;
73100;SDS011;61288;53.446;-2.266;2023-08-30T13:26:06;5.57;;;1.08;;
73100;SDS011;61288;53.446;-2.266;2023-08-30T13:28:32;5.90;;;1.25;;
73100;SDS011;61288;53.446;-2.266;2023-08-30T13:30:58;7.20;;;1.17;;
73100;SDS011;61288;53.446;-2.266;2023-08-30T13:33:23;5.82;;;1.55;;
73100;SDS011;61288;53.446;-2.266;2023-08-30T13:35:49;7.72;;;1.30;;
73100;SDS011;61288;53.446;-2.266;2023-08-30T13:38:16;4.28;;;1.20;;
73100;SDS011;61288;53.446;-2.266;2023-08-30T13:40:42;6.18;;;1.20;;
73100;SDS011;61288;53.446;-2.266;2023-08-30T13:43:08;4.43;;;1.20;;
73100;SDS011;61288;53.446;-2.266;2023-08-30T13:45:33;4.88;;;0.90;;
73100;SDS011;61288;53.446;-2.266;2023-08-30T13:47:58;4.57;;;1.20;;
73100;SDS011;61288;53.446;-2.266;2023-08-30T13:50:24;5.13;;;1.00;;
73100;SDS011;61288;53.446;-2.266;2023-08-30T13:52:55;8.35;;;1.13;;
73100;SDS011;61288;53.446;-2.266;2023-08-30T13:55:21;3.13;;;1.10;;
73100;SDS011;61288;53.446;-2.266;2023-08-30T13:57:47;5.53;;;1.23;;
73100;SDS011;61288;53.446;-2.266;2023-08-30T14:00:12;5.07;;;1.23;;
73100;SDS011;61288;53.446;-2.266;2023-08-30T14:02:38;5.95;;;1.30;;
73100;SDS011;61288;53.446;-2.266;2023-08-30T14:05:04;4.65;;;1.30;;
73100;SDS011;61288;53.446;-2.266;2023-08-30T14:07:30;5.07;;;1.23;;
73100;SDS011;61288;53.446;-2.266;2023-08-30T14:09:56;2.90;;;0.95;;
73100;SDS011;61288;53.446;-2.266;2023-08-30T14:12:22;4.13;;;1.30;;
73100;SDS011;61288;53.446;-2.266;2023-08-30T14:14:48;4.15;;;1.20;;
73100;SDS011;61288;53.446;-2.266;2023-08-30T14:17:13;4.97;;;1.42;;
73100;SDS011;61288;53.446;-2.266;2023-08-30T14:19:39;7.90;;;1.10;;
73100;SDS011;61288;53.446;-2.266;2023-08-30T14:22:04;7.22;;;1.45;;
73100;SDS011;61288;53.446;-2.266;2023-08-30T14:24:31;4.57;;;1.10;;
73100;SDS011;61288;53.446;-2.266;2023-08-30T14:26:58;3.30;;;0.95;;
73100;SDS011;61288;53.446;-2.266;2023-08-30T14:29:26;5.00;;;1.15;;
73100;SDS011;61288;53.446;-2.266;2023-08-30T14:31:51;7.05;;;1.30;;
73100;SDS011;61288;53.446;-2.266;2023-08-30T14:34:20;4.63;;;1.27;;
73100;SDS011;61288;53.446;-2.266;2023-08-30T14:36:46;7.00;;;1.20;;
73100;SDS011;61288;53.446;-2.266;2023-08-30T14:39:13;6.38;;;1.52;;
73100;SDS011;61288;53.446;-2.266;2023-08-30T14:41:38;3.85;;;1.13;;
73100;SDS011;61288;53.446;-2.266;2023-08-30T14:44:04;5.00;;;1.65;;
73100;SDS011;61288;53.446;-2.266;2023-08-30T14:46:30;4.13;;;1.25;;
73100;SDS011;61288;53.446;-2.266;2023-08-30T14:48:55;5.10;;;1.23;;